sensor_id;sensor_type;location;lat;lon;timestamp;pressure;altitude;pressure_sealevel;temperature;humidity
19086;BME280;9675;51.538;6.728;2023-08-30T00:01:12;100525.84;;;19.81;96.92
19086;BME280;9675;51.538;6.728;2023-08-30T00:03:39;100531.94;;;19.79;97.14
19086;BME280;9675;51.538;6.728;2023-08-30T00:06:06;100532.78;;;19.76;97.09
19086;BME280;9675;51.538;6.728;2023-08-30T00:08:34;100531.88;;;19.74;97.02
19086;BME280;9675;51.538;6.728;2023-08-30T00:11:03;100534.50;;;19.71;97.36
19086;BME280;9675;51.538;6.728;2023-08-30T00:13:31;100531.00;;;19.68;97.77
19086;BME280;9675;51.538;6.728;2023-08-30T00:15:58;100530.09;;;19.66;97.87
19086;BME280;9675;51.538;6.728;2023-08-30T00:18:25;100536.19;;;19.63;98.17
19086;BME280;9675;51.538;6.728;2023-08-30T00:20:52;100536.13;;;19.60;98.80
19086;BME280;9675;51.538;6.728;2023-08-30T00:23:20;100528.28;;;19.56;98.87
19086;BME280;9675;51.538;6.728;2023-08-30T00:25:47;100525.63;;;19.54;99.41
19086;BME280;9675;51.538;6.728;2023-08-30T00:28:15;100525.63;;;19.51;99.53
19086;BME280;9675;51.538;6.728;2023-08-30T00:30:42;100529.94;;;19.49;98.96
19086;BME280;9675;51.538;6.728;2023-08-30T00:33:09;100529.06;;;19.47;100.00
19086;BME280;9675;51.538;6.728;2023-08-30T00:35:36;100530.72;;;19.43;100.00
19086;BME280;9675;51.538;6.728;2023-08-30T00:38:03;100534.22;;;19.41;100.00
19086;BME280;9675;51.538;6.728;2023-08-30T00:40:38;100528.94;;;19.38;100.00
19086;BME280;9675;51.538;6.728;2023-08-30T00:43:05;100532.41;;;19.35;100.00
19086;BME280;9675;51.538;6.728;2023-08-30T00:45:38;100530.63;;;19.33;100.00
19086;BME280;9675;51.538;6.728;2023-08-30T00:48:07;100529.78;;;19.31;100.00
19086;BME280;9675;51.538;6.728;2023-08-30T00:50:34;100535.81;;;19.28;100.00
19086;BME280;9675;51.538;6.728;2023-08-30T00:53:02;100523.63;;;19.26;100.00
19086;BME280;9675;51.538;6.728;2023-08-30T00:55:31;100528.84;;;19.26;100.00
19086;BME280;9675;51.538;6.728;2023-08-30T00:57:59;100526.19;;;19.21;100.00
19086;BME280;9675;51.538;6.728;2023-08-30T01:00:28;100522.69;;;19.19;100.00
19086;BME280;9675;51.538;6.728;2023-08-30T01:02:57;100517.44;;;19.18;100.00
19086;BME280;9675;51.538;6.728;2023-08-30T01:05:24;100514.81;;;19.15;100.00
19086;BME280;9675;51.538;6.728;2023-08-30T01:07:52;100515.66;;;19.12;100.00
19086;BME280;9675;51.538;6.728;2023-08-30T01:10:41;100510.38;;;19.07;100.00
19086;BME280;9675;51.538;6.728;2023-08-30T01:13:17;100507.75;;;19.04;100.00
19086;BME280;9675;51.538;6.728;2023-08-30T01:15:47;100504.25;;;19.02;100.00
19086;BME280;9675;51.538;6.728;2023-08-30T01:18:18;100506.00;;;19.00;100.00
19086;BME280;9675;51.538;6.728;2023-08-30T01:20:48;100507.66;;;18.97;100.00
19086;BME280;9675;51.538;6.728;2023-08-30T01:23:29;100501.59;;;18.95;100.00
19086;BME280;9675;51.538;6.728;2023-08-30T01:26:09;100490.22;;;18.91;100.00
19086;BME280;9675;51.538;6.728;2023-08-30T01:28:39;100491.94;;;18.89;100.00
19086;BME280;9675;51.538;6.728;2023-08-30T01:31:08;100489.28;;;18.86;100.00
19086;BME280;9675;51.538;6.728;2023-08-30T01:33:36;100489.28;;;18.83;100.00
19086;BME280;9675;51.538;6.728;2023-08-30T01:36:05;100498.81;;;18.81;100.00
19086;BME280;9675;51.538;6.728;2023-08-30T01:38:35;100490.09;;;18.79;100.00
19086;BME280;9675;51.538;6.728;2023-08-30T01:41:02;100498.78;;;18.78;100.00
19086;BME280;9675;51.538;6.728;2023-08-30T01:43:32;100495.28;;;18.76;100.00
19086;BME280;9675;51.538;6.728;2023-08-30T01:46:02;100497.88;;;18.73;100.00
19086;BME280;9675;51.538;6.728;2023-08-30T01:48:32;100497.84;;;18.70;100.00
19086;BME280;9675;51.538;6.728;2023-08-30T01:51:00;100491.72;;;18.68;100.00
19086;BME280;9675;51.538;6.728;2023-08-30T01:53:28;100495.16;;;18.65;100.00
19086;BME280;9675;51.538;6.728;2023-08-30T01:55:56;100488.19;;;18.63;100.00
19086;BME280;9675;51.538;6.728;2023-08-30T01:58:23;100496.84;;;18.59;100.00
19086;BME280;9675;51.538;6.728;2023-08-30T02:00:50;100489.88;;;18.58;100.00
19086;BME280;9675;51.538;6.728;2023-08-30T02:03:18;100493.31;;;18.55;100.00
19086;BME280;9675;51.538;6.728;2023-08-30T02:05:57;100486.31;;;18.53;100.00
19086;BME280;9675;51.538;6.728;2023-08-30T02:08:38;100480.19;;;18.52;100.00
19086;BME280;9675;51.538;6.728;2023-08-30T02:11:15;100480.19;;;18.49;100.00
19086;BME280;9675;51.538;6.728;2023-08-30T02:13:45;100484.50;;;18.50;100.00
19086;BME280;9675;51.538;6.728;2023-08-30T02:16:13;100489.72;;;18.49;100.00
19086;BME280;9675;51.538;6.728;2023-08-30T02:18:44;100487.94;;;18.45;100.00
19086;BME280;9675;51.538;6.728;2023-08-30T02:21:11;100487.94;;;18.43;100.00
19086;BME280;9675;51.538;6.728;2023-08-30T02:23:38;100489.66;;;18.43;100.00
19086;BME280;9675;51.538;6.728;2023-08-30T02:26:05;100485.25;;;18.40;100.00
19086;BME280;9675;51.538;6.728;2023-08-30T02:28:32;100493.09;;;18.39;100.00
19086;BME280;9675;51.538;6.728;2023-08-30T02:30:59;100491.34;;;18.38;100.00
19086;BME280;9675;51.538;6.728;2023-08-30T02:33:26;100486.13;;;18.38;100.00
19086;BME280;9675;51.538;6.728;2023-08-30T02:35:56;100484.38;;;18.37;100.00
19086;BME280;9675;51.538;6.728;2023-08-30T02:38:23;100481.72;;;18.34;100.00
19086;BME280;9675;51.538;6.728;2023-08-30T02:40:50;100486.03;;;18.32;100.00
19086;BME280;9675;51.538;6.728;2023-08-30T02:43:17;100477.34;;;18.31;100.00
19086;BME280;9675;51.538;6.728;2023-08-30T02:45:44;100479.91;;;18.30;100.00
19086;BME280;9675;51.538;6.728;2023-08-30T02:48:11;100465.97;;;18.26;100.00
19086;BME280;9675;51.538;6.728;2023-08-30T02:50:38;100480.75;;;18.25;100.00
19086;BME280;9675;51.538;6.728;2023-08-30T02:53:06;100473.78;;;18.24;100.00
19086;BME280;9675;51.538;6.728;2023-08-30T02:55:34;100477.25;;;18.23;100.00
19086;BME280;9675;51.538;6.728;2023-08-30T02:58:01;100470.25;;;18.21;100.00
19086;BME280;9675;51.538;6.728;2023-08-30T03:00:28;100466.78;;;18.20;100.00
19086;BME280;9675;51.538;6.728;2023-08-30T03:02:55;100461.53;;;18.17;100.00
19086;BME280;9675;51.538;6.728;2023-08-30T03:05:22;100458.91;;;18.16;100.00
19086;BME280;9675;51.538;6.728;2023-08-30T03:07:49;100458.00;;;18.12;100.00
19086;BME280;9675;51.538;6.728;2023-08-30T03:10:18;100461.47;;;18.11;100.00
19086;BME280;9675;51.538;6.728;2023-08-30T03:12:45;100450.97;;;18.08;100.00
19086;BME280;9675;51.538;6.728;2023-08-30T03:15:12;100455.34;;;18.08;100.00
19086;BME280;9675;51.538;6.728;2023-08-30T03:17:39;100447.53;;;18.09;100.00
19086;BME280;9675;51.538;6.728;2023-08-30T03:20:07;100438.81;;;18.07;100.00
19086;BME280;9675;51.538;6.728;2023-08-30T03:22:34;100447.50;;;18.06;100.00
19086;BME280;9675;51.538;6.728;2023-08-30T03:25:01;100445.72;;;18.05;100.00
19086;BME280;9675;51.538;6.728;2023-08-30T03:27:32;100446.59;;;18.04;100.00
19086;BME280;9675;51.538;6.728;2023-08-30T03:29:59;100445.72;;;18.02;100.00
19086;BME280;9675;51.538;6.728;2023-08-30T03:32:26;100437.00;;;18.00;100.00
19086;BME280;9675;51.538;6.728;2023-08-30T03:34:53;100438.69;;;17.98;100.00
19086;BME280;9675;51.538;6.728;2023-08-30T03:37:20;100435.16;;;17.95;100.00
19086;BME280;9675;51.538;6.728;2023-08-30T03:39:47;100440.31;;;17.90;100.00
19086;BME280;9675;51.538;6.728;2023-08-30T03:42:14;100438.53;;;17.86;100.00
19086;BME280;9675;51.538;6.728;2023-08-30T03:44:43;100429.81;;;17.84;100.00
19086;BME280;9675;51.538;6.728;2023-08-30T03:47:10;100430.66;;;17.83;100.00
19086;BME280;9675;51.538;6.728;2023-08-30T03:49:37;100431.53;;;17.82;100.00
19086;BME280;9675;51.538;6.728;2023-08-30T03:52:05;100426.34;;;17.82;100.00
19086;BME280;9675;51.538;6.728;2023-08-30T03:54:32;100422.81;;;17.80;100.00
19086;BME280;9675;51.538;6.728;2023-08-30T03:56:59;100422.81;;;17.80;100.00
19086;BME280;9675;51.538;6.728;2023-08-30T03:59:26;100421.06;;;17.79;100.00
19086;BME280;9675;51.538;6.728;2023-08-30T04:01:55;100429.72;;;17.78;100.00
19086;BME280;9675;51.538;6.728;2023-08-30T04:04:22;100428.84;;;17.77;100.00
19086;BME280;9675;51.538;6.728;2023-08-30T04:06:49;100431.47;;;17.76;100.00
19086;BME280;9675;51.538;6.728;2023-08-30T04:09:16;100429.69;;;17.75;100.00
19086;BME280;9675;51.538;6.728;2023-08-30T04:11:44;100421.88;;;17.75;100.00
19086;BME280;9675;51.538;6.728;2023-08-30T04:14:11;100415.78;;;17.73;100.00
19086;BME280;9675;51.538;6.728;2023-08-30T04:16:38;100410.56;;;17.71;100.00
19086;BME280;9675;51.538;6.728;2023-08-30T04:19:06;100407.09;;;17.71;100.00
19086;BME280;9675;51.538;6.728;2023-08-30T04:21:33;100409.69;;;17.71;100.00
19086;BME280;9675;51.538;6.728;2023-08-30T04:24:00;100406.16;;;17.69;100.00
19086;BME280;9675;51.538;6.728;2023-08-30T04:26:28;100395.72;;;17.67;100.00
19086;BME280;9675;51.538;6.728;2023-08-30T04:28:55;100391.41;;;17.68;100.00
19086;BME280;9675;51.538;6.728;2023-08-30T04:31:22;100393.09;;;17.64;100.00
19086;BME280;9675;51.538;6.728;2023-08-30T04:33:49;100387.81;;;17.60;100.00
19086;BME280;9675;51.538;6.728;2023-08-30T04:36:19;100386.03;;;17.59;100.00
19086;BME280;9675;51.538;6.728;2023-08-30T04:38:47;100385.13;;;17.57;100.00
19086;BME280;9675;51.538;6.728;2023-08-30T04:41:14;100383.41;;;17.56;100.00
19086;BME280;9675;51.538;6.728;2023-08-30T04:43:41;100389.47;;;17.55;100.00
19086;BME280;9675;51.538;6.728;2023-08-30T04:46:09;100380.75;;;17.53;100.00
19086;BME280;9675;51.538;6.728;2023-08-30T04:48:36;100376.38;;;17.50;100.00
19086;BME280;9675;51.538;6.728;2023-08-30T04:51:04;100385.91;;;17.50;100.00
19086;BME280;9675;51.538;6.728;2023-08-30T04:53:33;100378.06;;;17.48;100.00
19086;BME280;9675;51.538;6.728;2023-08-30T04:56:00;100367.63;;;17.47;100.00
19086;BME280;9675;51.538;6.728;2023-08-30T04:58:27;100370.22;;;17.47;100.00
19086;BME280;9675;51.538;6.728;2023-08-30T05:00:56;100371.97;;;17.45;100.00
19086;BME280;9675;51.538;6.728;2023-08-30T05:03:23;100363.25;;;17.42;100.00
19086;BME280;9675;51.538;6.728;2023-08-30T05:05:50;100366.69;;;17.41;100.00
19086;BME280;9675;51.538;6.728;2023-08-30T05:08:17;100362.34;;;17.39;100.00
19086;BME280;9675;51.538;6.728;2023-08-30T05:10:45;100365.78;;;17.38;100.00
19086;BME280;9675;51.538;6.728;2023-08-30T05:13:16;100354.47;;;17.34;100.00
19086;BME280;9675;51.538;6.728;2023-08-30T05:15:43;100349.19;;;17.31;100.00
19086;BME280;9675;51.538;6.728;2023-08-30T05:18:10;100350.06;;;17.30;100.00
19086;BME280;9675;51.538;6.728;2023-08-30T05:20:37;100347.41;;;17.27;100.00
19086;BME280;9675;51.538;6.728;2023-08-30T05:23:04;100347.38;;;17.24;100.00
19086;BME280;9675;51.538;6.728;2023-08-30T05:25:31;100348.19;;;17.22;100.00
19086;BME280;9675;51.538;6.728;2023-08-30T05:28:00;100346.44;;;17.21;100.00
19086;BME280;9675;51.538;6.728;2023-08-30T05:30:27;100344.69;;;17.18;100.00
19086;BME280;9675;51.538;6.728;2023-08-30T05:32:54;100340.31;;;17.17;100.00
19086;BME280;9675;51.538;6.728;2023-08-30T05:35:21;100335.09;;;17.16;100.00
19086;BME280;9675;51.538;6.728;2023-08-30T05:37:48;100336.81;;;17.15;100.00
19086;BME280;9675;51.538;6.728;2023-08-30T05:40:16;100329.00;;;17.15;100.00
19086;BME280;9675;51.538;6.728;2023-08-30T05:42:43;100322.91;;;17.13;100.00
19086;BME280;9675;51.538;6.728;2023-08-30T05:45:13;100320.28;;;17.12;100.00
19086;BME280;9675;51.538;6.728;2023-08-30T05:47:40;100320.28;;;17.12;100.00
19086;BME280;9675;51.538;6.728;2023-08-30T05:50:08;100315.06;;;17.10;100.00
19086;BME280;9675;51.538;6.728;2023-08-30T05:52:35;100324.63;;;17.10;100.00
19086;BME280;9675;51.538;6.728;2023-08-30T05:55:10;100318.53;;;17.09;100.00
19086;BME280;9675;51.538;6.728;2023-08-30T05:57:37;100323.69;;;17.08;100.00
19086;BME280;9675;51.538;6.728;2023-08-30T06:00:07;100315.03;;;17.07;100.00
19086;BME280;9675;51.538;6.728;2023-08-30T06:02:35;100314.19;;;17.08;100.00
19086;BME280;9675;51.538;6.728;2023-08-30T06:05:03;100303.75;;;17.07;100.00
19086;BME280;9675;51.538;6.728;2023-08-30T06:07:30;100301.13;;;17.07;100.00
19086;BME280;9675;51.538;6.728;2023-08-30T06:09:57;100300.28;;;17.08;100.00
19086;BME280;9675;51.538;6.728;2023-08-30T06:12:24;100295.97;;;17.08;100.00
19086;BME280;9675;51.538;6.728;2023-08-30T06:14:52;100298.56;;;17.08;100.00
19086;BME280;9675;51.538;6.728;2023-08-30T06:17:19;100298.56;;;17.08;100.00
19086;BME280;9675;51.538;6.728;2023-08-30T06:19:48;100297.69;;;17.08;100.00
19086;BME280;9675;51.538;6.728;2023-08-30T06:22:15;100296.78;;;17.06;100.00
19086;BME280;9675;51.538;6.728;2023-08-30T06:24:42;100295.06;;;17.06;100.00
19086;BME280;9675;51.538;6.728;2023-08-30T06:27:09;100289.84;;;17.06;100.00
19086;BME280;9675;51.538;6.728;2023-08-30T06:29:36;100283.78;;;17.06;100.00
19086;BME280;9675;51.538;6.728;2023-08-30T06:32:04;100284.66;;;17.06;100.00
19086;BME280;9675;51.538;6.728;2023-08-30T06:34:31;100293.28;;;17.05;100.00
19086;BME280;9675;51.538;6.728;2023-08-30T06:37:00;100286.41;;;17.07;100.00
19086;BME280;9675;51.538;6.728;2023-08-30T06:39:33;100293.34;;;17.07;100.00
19086;BME280;9675;51.538;6.728;2023-08-30T06:42:01;100294.22;;;17.07;100.00
19086;BME280;9675;51.538;6.728;2023-08-30T06:44:28;100292.47;;;17.08;100.00
19086;BME280;9675;51.538;6.728;2023-08-30T06:46:55;100289.00;;;17.07;100.00
19086;BME280;9675;51.538;6.728;2023-08-30T06:49:22;100288.09;;;17.05;100.00
19086;BME280;9675;51.538;6.728;2023-08-30T06:51:50;100287.22;;;17.05;100.00
19086;BME280;9675;51.538;6.728;2023-08-30T06:54:18;100279.44;;;17.06;100.00
19086;BME280;9675;51.538;6.728;2023-08-30T06:56:57;100287.31;;;17.09;100.00
19086;BME280;9675;51.538;6.728;2023-08-30T06:59:25;100276.06;;;17.12;100.00
19086;BME280;9675;51.538;6.728;2023-08-30T07:01:53;100275.25;;;17.14;100.00
19086;BME280;9675;51.538;6.728;2023-08-30T07:04:20;100278.72;;;17.16;100.00
19086;BME280;9675;51.538;6.728;2023-08-30T07:06:47;100266.56;;;17.14;100.00
19086;BME280;9675;51.538;6.728;2023-08-30T07:09:14;100261.34;;;17.14;100.00
19086;BME280;9675;51.538;6.728;2023-08-30T07:11:44;100271.78;;;17.17;100.00
19086;BME280;9675;51.538;6.728;2023-08-30T07:14:11;100257.09;;;17.20;100.00
19086;BME280;9675;51.538;6.728;2023-08-30T07:16:40;100260.59;;;17.22;100.00
19086;BME280;9675;51.538;6.728;2023-08-30T07:19:07;100263.22;;;17.24;100.00
19086;BME280;9675;51.538;6.728;2023-08-30T07:21:35;100264.97;;;17.25;100.00
19086;BME280;9675;51.538;6.728;2023-08-30T07:24:06;100254.59;;;17.28;100.00
19086;BME280;9675;51.538;6.728;2023-08-30T07:26:33;100261.59;;;17.32;100.00
19086;BME280;9675;51.538;6.728;2023-08-30T07:29:02;100257.31;;;17.35;100.00
19086;BME280;9675;51.538;6.728;2023-08-30T07:31:30;100254.75;;;17.38;100.00
19086;BME280;9675;51.538;6.728;2023-08-30T07:33:57;100259.19;;;17.46;100.00
19086;BME280;9675;51.538;6.728;2023-08-30T07:36:25;100258.38;;;17.51;100.00
19086;BME280;9675;51.538;6.728;2023-08-30T07:38:52;100258.41;;;17.54;100.00
19086;BME280;9675;51.538;6.728;2023-08-30T07:41:19;100252.34;;;17.57;100.00
19086;BME280;9675;51.538;6.728;2023-08-30T07:43:46;100254.19;;;17.61;100.00
19086;BME280;9675;51.538;6.728;2023-08-30T07:46:15;100256.00;;;17.66;100.00
19086;BME280;9675;51.538;6.728;2023-08-30T07:48:42;100250.81;;;17.71;100.00
19086;BME280;9675;51.538;6.728;2023-08-30T07:51:09;100257.81;;;17.78;100.00
19086;BME280;9675;51.538;6.728;2023-08-30T07:53:36;100261.34;;;17.83;100.00
19086;BME280;9675;51.538;6.728;2023-08-30T07:56:04;100251.00;;;17.89;100.00
19086;BME280;9675;51.538;6.728;2023-08-30T07:58:31;100258.91;;;17.97;100.00
19086;BME280;9675;51.538;6.728;2023-08-30T08:00:58;100241.59;;;18.03;100.00
19086;BME280;9675;51.538;6.728;2023-08-30T08:03:27;100252.13;;;18.12;100.00
19086;BME280;9675;51.538;6.728;2023-08-30T08:05:54;100248.69;;;18.16;100.00
19086;BME280;9675;51.538;6.728;2023-08-30T08:08:21;100247.00;;;18.23;100.00
19086;BME280;9675;51.538;6.728;2023-08-30T08:10:48;100245.31;;;18.28;100.00
19086;BME280;9675;51.538;6.728;2023-08-30T08:13:15;100254.06;;;18.33;100.00
19086;BME280;9675;51.538;6.728;2023-08-30T08:15:42;100248.03;;;18.39;100.00
19086;BME280;9675;51.538;6.728;2023-08-30T08:18:09;100248.03;;;18.45;100.00
19086;BME280;9675;51.538;6.728;2023-08-30T08:20:38;100255.94;;;18.52;100.00
19086;BME280;9675;51.538;6.728;2023-08-30T08:23:06;100252.53;;;18.58;100.00
19086;BME280;9675;51.538;6.728;2023-08-30T08:25:33;100255.19;;;18.65;100.00
19086;BME280;9675;51.538;6.728;2023-08-30T08:28:00;100258.72;;;18.69;100.00
19086;BME280;9675;51.538;6.728;2023-08-30T08:30:27;100262.22;;;18.73;100.00
19086;BME280;9675;51.538;6.728;2023-08-30T08:32:54;100262.25;;;18.77;100.00
19086;BME280;9675;51.538;6.728;2023-08-30T08:35:21;100267.50;;;18.83;100.00
19086;BME280;9675;51.538;6.728;2023-08-30T08:37:50;100264.03;;;18.84;100.00
19086;BME280;9675;51.538;6.728;2023-08-30T08:40:17;100260.56;;;18.85;100.00
19086;BME280;9675;51.538;6.728;2023-08-30T08:42:48;100260.59;;;18.88;100.00
19086;BME280;9675;51.538;6.728;2023-08-30T08:45:18;100264.97;;;18.91;100.00
19086;BME280;9675;51.538;6.728;2023-08-30T08:47:48;100262.34;;;18.92;100.00
19086;BME280;9675;51.538;6.728;2023-08-30T08:50:16;100262.38;;;18.95;100.00
19086;BME280;9675;51.538;6.728;2023-08-30T08:52:44;100269.34;;;18.98;100.00
19086;BME280;9675;51.538;6.728;2023-08-30T08:55:13;100270.22;;;18.98;100.00
19086;BME280;9675;51.538;6.728;2023-08-30T08:57:42;100270.22;;;18.98;100.00
19086;BME280;9675;51.538;6.728;2023-08-30T09:00:12;100269.34;;;18.99;100.00
19086;BME280;9675;51.538;6.728;2023-08-30T09:02:40;100269.34;;;18.99;100.00
19086;BME280;9675;51.538;6.728;2023-08-30T09:05:09;100263.28;;;19.03;100.00
19086;BME280;9675;51.538;6.728;2023-08-30T09:07:37;100266.78;;;19.05;100.00
19086;BME280;9675;51.538;6.728;2023-08-30T09:10:05;100271.16;;;19.06;100.00
19086;BME280;9675;51.538;6.728;2023-08-30T09:12:35;100271.13;;;19.08;100.00
19086;BME280;9675;51.538;6.728;2023-08-30T09:15:02;100266.81;;;19.08;100.00
19086;BME280;9675;51.538;6.728;2023-08-30T09:17:36;100274.63;;;19.08;100.00
19086;BME280;9675;51.538;6.728;2023-08-30T09:20:08;100265.94;;;19.06;100.00
19086;BME280;9675;51.538;6.728;2023-08-30T09:22:37;100266.78;;;19.07;100.00
19086;BME280;9675;51.538;6.728;2023-08-30T09:25:06;100257.22;;;19.04;100.00
19086;BME280;9675;51.538;6.728;2023-08-30T09:27:35;100266.78;;;19.04;100.00
19086;BME280;9675;51.538;6.728;2023-08-30T09:30:05;100261.53;;;19.02;100.00
19086;BME280;9675;51.538;6.728;2023-08-30T09:32:39;100257.16;;;18.98;100.00
19086;BME280;9675;51.538;6.728;2023-08-30T09:35:08;100244.09;;;18.97;100.00
19086;BME280;9675;51.538;6.728;2023-08-30T09:37:35;100244.97;;;18.94;100.00
19086;BME280;9675;51.538;6.728;2023-08-30T09:40:04;100244.94;;;18.91;100.00
19086;BME280;9675;51.538;6.728;2023-08-30T09:42:31;100238.88;;;18.91;100.00
19086;BME280;9675;51.538;6.728;2023-08-30T09:45:00;100236.22;;;18.86;100.00
19086;BME280;9675;51.538;6.728;2023-08-30T09:47:29;100237.09;;;18.85;100.00
19086;BME280;9675;51.538;6.728;2023-08-30T09:49:58;100225.75;;;18.83;100.00
19086;BME280;9675;51.538;6.728;2023-08-30T09:52:30;100239.69;;;18.81;100.00
19086;BME280;9675;51.538;6.728;2023-08-30T09:54:58;100235.31;;;18.78;100.00
19086;BME280;9675;51.538;6.728;2023-08-30T09:57:26;100229.19;;;18.73;100.00
19086;BME280;9675;51.538;6.728;2023-08-30T09:59:55;100226.56;;;18.70;100.00
19086;BME280;9675;51.538;6.728;2023-08-30T10:02:25;100231.75;;;18.67;100.00
19086;BME280;9675;51.538;6.728;2023-08-30T10:04:52;100233.44;;;18.62;100.00
19086;BME280;9675;51.538;6.728;2023-08-30T10:07:21;100229.09;;;18.59;100.00
19086;BME280;9675;51.538;6.728;2023-08-30T10:09:51;100229.03;;;18.55;100.00
19086;BME280;9675;51.538;6.728;2023-08-30T10:12:20;100223.75;;;18.50;100.00
19086;BME280;9675;51.538;6.728;2023-08-30T10:14:48;100223.72;;;18.46;100.00
19086;BME280;9675;51.538;6.728;2023-08-30T10:17:19;100228.03;;;18.39;100.00
19086;BME280;9675;51.538;6.728;2023-08-30T10:19:51;100233.22;;;18.36;100.00
19086;BME280;9675;51.538;6.728;2023-08-30T10:22:21;100228.88;;;18.34;100.00
19086;BME280;9675;51.538;6.728;2023-08-30T10:24:55;100227.97;;;18.32;100.00
19086;BME280;9675;51.538;6.728;2023-08-30T10:27:26;100234.00;;;18.29;100.00
19086;BME280;9675;51.538;6.728;2023-08-30T10:29:55;100229.66;;;18.26;100.00
19086;BME280;9675;51.538;6.728;2023-08-30T10:32:22;100225.28;;;18.22;100.00
19086;BME280;9675;51.538;6.728;2023-08-30T10:34:51;100227.00;;;18.20;100.00
19086;BME280;9675;51.538;6.728;2023-08-30T10:37:23;100228.72;;;18.17;100.00
19086;BME280;9675;51.538;6.728;2023-08-30T10:39:50;100221.72;;;18.14;100.00
19086;BME280;9675;51.538;6.728;2023-08-30T10:42:23;100230.38;;;18.10;100.00
19086;BME280;9675;51.538;6.728;2023-08-30T10:44:51;100231.22;;;18.09;100.00
19086;BME280;9675;51.538;6.728;2023-08-30T10:47:19;100222.53;;;18.06;100.00
19086;BME280;9675;51.538;6.728;2023-08-30T10:49:47;100230.31;;;18.03;100.00
19086;BME280;9675;51.538;6.728;2023-08-30T10:52:16;100228.53;;;17.99;100.00
19086;BME280;9675;51.538;6.728;2023-08-30T10:54:43;100230.28;;;18.00;100.00
19086;BME280;9675;51.538;6.728;2023-08-30T10:57:14;100233.75;;;17.97;100.00
19086;BME280;9675;51.538;6.728;2023-08-30T11:00:03;100231.13;;;17.96;100.00
19086;BME280;9675;51.538;6.728;2023-08-30T11:02:32;100233.69;;;17.94;100.00
19086;BME280;9675;51.538;6.728;2023-08-30T11:04:59;100225.00;;;17.92;100.00
19086;BME280;9675;51.538;6.728;2023-08-30T11:07:27;100233.63;;;17.88;100.00
19086;BME280;9675;51.538;6.728;2023-08-30T11:09:55;100230.09;;;17.83;100.00
19086;BME280;9675;51.538;6.728;2023-08-30T11:12:22;100227.50;;;17.81;100.00
19086;BME280;9675;51.538;6.728;2023-08-30T11:14:52;100224.88;;;17.80;100.00
19086;BME280;9675;51.538;6.728;2023-08-30T11:17:20;100217.03;;;17.78;100.00
19086;BME280;9675;51.538;6.728;2023-08-30T11:19:50;100226.56;;;17.78;100.00
19086;BME280;9675;51.538;6.728;2023-08-30T11:22:18;100220.50;;;17.76;100.00
19086;BME280;9675;51.538;6.728;2023-08-30T11:24:49;100218.75;;;17.75;100.00
19086;BME280;9675;51.538;6.728;2023-08-30T11:27:17;100217.00;;;17.74;100.00
19086;BME280;9675;51.538;6.728;2023-08-30T11:29:44;100216.97;;;17.71;100.00
19086;BME280;9675;51.538;6.728;2023-08-30T11:32:11;100216.06;;;17.69;100.00
19086;BME280;9675;51.538;6.728;2023-08-30T11:34:38;100213.44;;;17.66;100.00
19086;BME280;9675;51.538;6.728;2023-08-30T11:37:05;100213.41;;;17.61;100.00
19086;BME280;9675;51.538;6.728;2023-08-30T11:39:34;100200.34;;;17.60;100.00
19086;BME280;9675;51.538;6.728;2023-08-30T11:42:03;100217.66;;;17.58;100.00
19086;BME280;9675;51.538;6.728;2023-08-30T11:44:32;100215.03;;;17.58;100.00
19086;BME280;9675;51.538;6.728;2023-08-30T11:47:00;100213.28;;;17.57;100.00
19086;BME280;9675;51.538;6.728;2023-08-30T11:49:28;100212.44;;;17.56;100.00
19086;BME280;9675;51.538;6.728;2023-08-30T11:51:56;100205.47;;;17.55;100.00
19086;BME280;9675;51.538;6.728;2023-08-30T11:54:24;100211.50;;;17.53;100.00
19086;BME280;9675;51.538;6.728;2023-08-30T11:56:52;100219.31;;;17.53;100.00
19086;BME280;9675;51.538;6.728;2023-08-30T11:59:21;100210.63;;;17.52;100.00
19086;BME280;9675;51.538;6.728;2023-08-30T12:01:48;100213.25;;;17.52;100.00
19086;BME280;9675;51.538;6.728;2023-08-30T12:04:16;100221.94;;;17.51;100.00
19086;BME280;9675;51.538;6.728;2023-08-30T12:06:50;100221.00;;;17.48;100.00
19086;BME280;9675;51.538;6.728;2023-08-30T12:09:18;100227.91;;;17.44;100.00
19086;BME280;9675;51.538;6.728;2023-08-30T12:11:47;100225.25;;;17.41;100.00
19086;BME280;9675;51.538;6.728;2023-08-30T12:14:14;100217.44;;;17.39;100.00
19086;BME280;9675;51.538;6.728;2023-08-30T12:16:43;100219.19;;;17.40;100.00
19086;BME280;9675;51.538;6.728;2023-08-30T12:19:14;100219.19;;;17.40;100.00
19086;BME280;9675;51.538;6.728;2023-08-30T12:21:42;100220.91;;;17.41;100.00
19086;BME280;9675;51.538;6.728;2023-08-30T12:24:10;100217.47;;;17.42;100.00
19086;BME280;9675;51.538;6.728;2023-08-30T12:26:37;100213.13;;;17.43;100.00
19086;BME280;9675;51.538;6.728;2023-08-30T12:29:05;100216.63;;;17.43;100.00
19086;BME280;9675;51.538;6.728;2023-08-30T12:31:32;100212.25;;;17.42;100.00
19086;BME280;9675;51.538;6.728;2023-08-30T12:34:01;100196.66;;;17.42;100.00
19086;BME280;9675;51.538;6.728;2023-08-30T12:36:28;100198.41;;;17.43;100.00
19086;BME280;9675;51.538;6.728;2023-08-30T12:38:55;100182.78;;;17.43;100.00
19086;BME280;9675;51.538;6.728;2023-08-30T12:41:22;100161.97;;;17.45;100.00
19086;BME280;9675;51.538;6.728;2023-08-30T12:43:49;100168.03;;;17.44;100.00
19086;BME280;9675;51.538;6.728;2023-08-30T12:46:17;100175.81;;;17.42;100.00
19086;BME280;9675;51.538;6.728;2023-08-30T12:48:44;100172.34;;;17.40;100.00
19086;BME280;9675;51.538;6.728;2023-08-30T12:51:12;100175.78;;;17.38;100.00
19086;BME280;9675;51.538;6.728;2023-08-30T12:53:40;100183.59;;;17.38;100.00
19086;BME280;9675;51.538;6.728;2023-08-30T12:56:07;100185.34;;;17.39;100.00